createdAt,value
2023-05-17T00:02:17.523Z,13.10
2023-05-17T00:04:48.977Z,13.20
2023-05-17T00:07:18.053Z,13.20
2023-05-17T00:09:46.146Z,13.20
2023-05-17T00:12:16.170Z,13.20
2023-05-17T00:14:44.473Z,13.20
2023-05-17T00:17:13.244Z,13.30
2023-05-17T00:19:41.925Z,13.30
2023-05-17T00:22:09.996Z,13.30
2023-05-17T00:24:38.747Z,13.00
2023-05-17T00:27:08.281Z,13.40
2023-05-17T00:29:36.503Z,13.30
2023-05-17T00:32:06.836Z,13.30
2023-05-17T00:34:35.203Z,13.30
2023-05-17T00:37:03.765Z,13.30
2023-05-17T00:39:32.875Z,13.40
2023-05-17T00:42:02.459Z,13.30
2023-05-17T00:44:30.840Z,13.40
2023-05-17T00:47:00.449Z,13.40
2023-05-17T00:49:30.965Z,13.30
2023-05-17T00:52:00.700Z,13.30
2023-05-17T00:54:29.608Z,13.40
2023-05-17T00:57:00.432Z,13.50
2023-05-17T00:59:31.187Z,13.40
2023-05-17T01:02:00.314Z,13.50
2023-05-17T01:04:30.463Z,13.40
2023-05-17T01:06:58.661Z,13.40
2023-05-17T01:09:26.926Z,13.40
2023-05-17T01:12:17.603Z,13.40
2023-05-17T01:15:30.880Z,13.40
2023-05-17T01:18:22.754Z,13.60
2023-05-17T01:20:55.116Z,13.40
2023-05-17T01:23:54.197Z,13.50
2023-05-17T01:26:42.095Z,13.40
2023-05-17T01:29:12.862Z,13.40
2023-05-17T01:31:43.028Z,13.10
2023-05-17T01:34:12.727Z,13.40
2023-05-17T01:36:40.746Z,13.40
2023-05-17T01:39:09.740Z,13.40
2023-05-17T01:41:56.782Z,13.40
2023-05-17T01:44:46.896Z,13.40
2023-05-17T01:47:31.900Z,13.50
2023-05-17T01:50:02.482Z,13.30
2023-05-17T01:52:52.129Z,13.40
2023-05-17T01:55:50.838Z,13.40
2023-05-17T01:58:23.795Z,13.60
2023-05-17T02:00:57.605Z,13.10
2023-05-17T02:03:28.852Z,13.40
2023-05-17T02:05:57.418Z,13.50
2023-05-17T02:08:26.227Z,13.50
2023-05-17T02:10:53.980Z,13.30
2023-05-17T02:13:22.049Z,13.40
2023-05-17T02:15:50.065Z,13.40
2023-05-17T02:18:17.829Z,13.30
2023-05-17T02:20:45.985Z,13.30
2023-05-17T02:23:14.027Z,13.00
2023-05-17T02:25:45.615Z,13.30
2023-05-17T02:28:14.021Z,13.30
2023-05-17T02:30:42.173Z,13.40
2023-05-17T02:33:10.900Z,13.30
2023-05-17T02:35:38.968Z,13.40
2023-05-17T02:38:07.038Z,13.50
2023-05-17T02:40:35.701Z,13.20
2023-05-17T02:43:06.126Z,13.30
2023-05-17T02:45:37.955Z,13.30
2023-05-17T02:48:12.242Z,13.20
2023-05-17T02:50:41.075Z,13.30
2023-05-17T02:53:08.802Z,13.40
2023-05-17T02:55:42.148Z,13.20
2023-05-17T02:58:10.351Z,13.20
2023-05-17T03:00:38.238Z,13.30
2023-05-17T03:03:06.353Z,13.40
2023-05-17T03:05:41.117Z,13.20
2023-05-17T03:08:09.456Z,13.20
2023-05-17T03:10:37.881Z,13.20
2023-05-17T03:13:06.862Z,13.20
2023-05-17T03:15:35.959Z,13.30
2023-05-17T03:18:04.167Z,13.30
2023-05-17T03:20:32.586Z,13.30
2023-05-17T03:23:01.465Z,13.30
2023-05-17T03:25:33.218Z,13.30
2023-05-17T03:28:02.117Z,13.30
2023-05-17T03:30:31.730Z,13.30
2023-05-17T03:33:00.611Z,13.50
2023-05-17T03:35:30.045Z,13.30
2023-05-17T03:38:00.791Z,13.40
2023-05-17T03:40:33.724Z,13.30
2023-05-17T03:43:06.123Z,13.30
2023-05-17T03:45:35.236Z,13.30
2023-05-17T03:48:05.185Z,13.20
2023-05-17T03:50:34.959Z,13.30
2023-05-17T03:53:04.651Z,13.20
2023-05-17T03:55:35.354Z,13.30
2023-05-17T03:58:05.118Z,13.30
2023-05-17T04:00:35.901Z,13.30
2023-05-17T04:03:05.639Z,13.20
2023-05-17T04:05:33.656Z,13.30
2023-05-17T04:08:13.284Z,13.30
2023-05-17T04:10:42.961Z,13.20
2023-05-17T04:13:12.069Z,13.40
2023-05-17T04:15:40.451Z,13.40
2023-05-17T04:18:12.354Z,13.20
2023-05-17T04:20:41.204Z,13.20
2023-05-17T04:23:13.008Z,13.20
2023-05-17T04:25:45.994Z,13.30
2023-05-17T04:28:15.263Z,13.20
2023-05-17T04:30:45.168Z,13.20
2023-05-17T04:33:15.318Z,13.20
2023-05-17T04:35:51.583Z,13.20
2023-05-17T04:38:20.960Z,13.20
2023-05-17T04:40:52.378Z,13.30
2023-05-17T04:43:22.456Z,13.30
2023-05-17T04:45:58.280Z,13.20
2023-05-17T04:48:29.455Z,13.40
2023-05-17T04:51:00.902Z,13.10
2023-05-17T04:53:32.798Z,13.30
2023-05-17T04:56:00.892Z,13.30
2023-05-17T04:58:30.263Z,13.30
2023-05-17T05:00:58.624Z,13.20
2023-05-17T05:03:27.265Z,13.20
2023-05-17T05:05:57.461Z,13.40
2023-05-17T05:08:26.212Z,13.30
2023-05-17T05:10:54.493Z,13.30
2023-05-17T05:13:23.373Z,13.20
2023-05-17T05:15:51.919Z,13.30
2023-05-17T05:18:19.898Z,13.40
2023-05-17T05:20:51.482Z,13.40
2023-05-17T05:23:20.530Z,13.40
2023-05-17T05:25:48.779Z,13.20
2023-05-17T05:28:18.978Z,13.40
2023-05-17T05:30:48.489Z,13.40
2023-05-17T05:33:16.759Z,13.50
2023-05-17T05:35:46.023Z,13.60
2023-05-17T05:38:14.569Z,13.50
2023-05-17T05:40:42.710Z,13.60
2023-05-17T05:43:13.017Z,13.70
2023-05-17T05:45:45.945Z,13.70
2023-05-17T05:48:18.670Z,13.70
2023-05-17T05:50:47.091Z,13.70
2023-05-17T05:53:19.340Z,13.40
2023-05-17T05:55:48.746Z,13.40
2023-05-17T05:58:17.082Z,13.70
2023-05-17T06:00:49.880Z,14.00
2023-05-17T06:03:18.036Z,13.60
2023-05-17T06:05:46.746Z,13.70
2023-05-17T06:08:14.668Z,13.70
2023-05-17T06:10:45.648Z,13.60
2023-05-17T06:13:15.020Z,14.20
2023-05-17T06:15:42.537Z,13.70
2023-05-17T06:18:10.554Z,13.80
2023-05-17T06:20:38.525Z,13.70
2023-05-17T06:23:07.147Z,13.80
2023-05-17T06:25:35.324Z,13.80
2023-05-17T06:28:04.998Z,13.80
2023-05-17T06:30:32.658Z,14.20
2023-05-17T06:33:01.376Z,13.90
2023-05-17T06:35:35.190Z,14.00
2023-05-17T06:38:09.184Z,13.90
2023-05-17T06:41:06.575Z,14.10
2023-05-17T06:43:35.813Z,13.90
2023-05-17T06:46:16.172Z,13.90
2023-05-17T06:48:44.209Z,14.10
2023-05-17T06:51:12.369Z,13.90
2023-05-17T06:53:40.514Z,14.30
2023-05-17T06:56:08.312Z,14.10
2023-05-17T06:58:36.736Z,14.30
2023-05-17T07:01:05.108Z,14.00
2023-05-17T07:03:34.001Z,14.30
2023-05-17T07:06:01.949Z,14.30
2023-05-17T07:11:12.508Z,14.30
2023-05-17T07:13:46.858Z,14.30
2023-05-17T07:16:14.783Z,14.40
2023-05-17T07:18:47.424Z,14.50
2023-05-17T07:21:24.821Z,14.50
2023-05-17T07:23:55.385Z,14.40
2023-05-17T07:26:22.958Z,14.40
2023-05-17T07:29:00.837Z,14.50
2023-05-17T07:31:32.336Z,14.40
2023-05-17T07:34:01.099Z,14.30
2023-05-17T07:36:31.192Z,14.20
2023-05-17T07:39:01.492Z,14.20
2023-05-17T07:41:30.871Z,14.30
2023-05-17T07:43:58.806Z,14.40
2023-05-17T07:46:30.190Z,14.30
2023-05-17T07:48:58.802Z,14.20
2023-05-17T07:51:27.022Z,14.20
2023-05-17T07:53:54.954Z,14.20
2023-05-17T07:56:25.841Z,14.30
2023-05-17T07:58:54.384Z,14.20
2023-05-17T08:01:24.034Z,14.30
2023-05-17T08:03:52.800Z,14.30
2023-05-17T08:06:31.006Z,14.20
2023-05-17T08:08:59.456Z,14.30
2023-05-17T08:11:35.162Z,14.10
2023-05-17T08:14:05.556Z,13.60
2023-05-17T08:16:33.673Z,13.70
2023-05-17T08:19:06.259Z,13.70
2023-05-17T08:21:37.959Z,13.60
2023-05-17T08:24:06.794Z,13.50
2023-05-17T08:26:35.585Z,13.50
2023-05-17T08:29:05.386Z,13.40
2023-05-17T08:31:34.114Z,13.40
2023-05-17T08:34:02.006Z,13.30
2023-05-17T08:36:30.515Z,12.80
2023-05-17T08:38:58.548Z,13.20
2023-05-17T08:41:26.161Z,12.90
2023-05-17T08:43:55.390Z,12.90
2023-05-17T08:46:26.383Z,12.60
2023-05-17T08:49:00.235Z,12.60
2023-05-17T08:51:29.531Z,12.80
2023-05-17T08:54:06.523Z,12.90
2023-05-17T08:56:37.762Z,12.60
2023-05-17T08:59:10.683Z,12.60
2023-05-17T09:01:42.587Z,12.50
2023-05-17T09:04:16.877Z,12.70
2023-05-17T09:06:45.046Z,12.70
2023-05-17T09:09:15.225Z,12.80
2023-05-17T09:11:44.087Z,12.60
2023-05-17T09:14:13.126Z,12.70
2023-05-17T09:16:43.859Z,12.50
2023-05-17T09:19:18.887Z,12.20
2023-05-17T09:21:48.815Z,12.60
2023-05-17T09:24:28.896Z,12.60
2023-05-17T09:27:03.873Z,12.50
2023-05-17T09:29:35.890Z,12.00
2023-05-17T09:32:19.288Z,12.10
2023-05-17T09:34:49.477Z,11.90
2023-05-17T09:37:20.478Z,12.10
2023-05-17T09:39:50.569Z,12.00
2023-05-17T09:42:19.534Z,12.10
2023-05-17T09:45:00.104Z,12.00
2023-05-17T09:47:30.896Z,12.00
2023-05-17T09:50:03.199Z,12.00
2023-05-17T09:52:32.374Z,12.00
2023-05-17T09:55:01.258Z,12.00
2023-05-17T09:57:41.131Z,12.00
2023-05-17T10:00:21.542Z,12.00
2023-05-17T10:02:52.404Z,12.00
2023-05-17T10:05:21.787Z,12.00
2023-05-17T10:07:51.936Z,11.80
2023-05-17T10:10:21.634Z,11.80
2023-05-17T10:12:52.648Z,12.00
2023-05-17T10:15:30.639Z,11.90
2023-05-17T10:18:17.802Z,12.00
2023-05-17T10:20:48.671Z,12.00
2023-05-17T10:23:21.668Z,11.90
2023-05-17T10:25:51.083Z,12.00
2023-05-17T10:28:22.370Z,12.30
2023-05-17T10:30:53.955Z,12.20
2023-05-17T10:33:23.605Z,12.30
2023-05-17T10:35:59.180Z,12.40
2023-05-17T10:38:41.794Z,12.40
2023-05-17T10:41:15.432Z,12.50
2023-05-17T10:43:48.216Z,12.80
2023-05-17T10:46:36.618Z,12.80
2023-05-17T10:49:05.653Z,12.80
2023-05-17T10:51:38.610Z,12.20
2023-05-17T10:54:21.772Z,12.50
2023-05-17T10:56:57.275Z,12.40
2023-05-17T10:59:28.882Z,12.40
2023-05-17T11:01:59.847Z,12.50
2023-05-17T11:04:37.817Z,12.60
2023-05-17T11:07:18.975Z,12.90
2023-05-17T11:10:08.721Z,12.60
2023-05-17T11:12:48.810Z,12.40
2023-05-17T11:15:18.582Z,12.50
2023-05-17T11:17:54.562Z,12.40
2023-05-17T11:20:29.357Z,12.40
2023-05-17T11:23:15.461Z,12.20
2023-05-17T11:25:43.352Z,12.60
2023-05-17T11:28:23.284Z,12.20
2023-05-17T11:30:52.739Z,12.60
2023-05-17T11:33:37.409Z,12.40
2023-05-17T11:36:23.158Z,12.60
2023-05-17T11:39:16.501Z,12.40
2023-05-17T11:41:53.683Z,12.40
2023-05-17T11:44:38.262Z,12.50
2023-05-17T11:47:12.659Z,12.20
2023-05-17T11:49:41.490Z,12.30
2023-05-17T11:52:09.899Z,12.20
2023-05-17T11:54:40.880Z,12.00
2023-05-17T11:57:12.271Z,12.20
2023-05-17T11:59:40.440Z,12.40
2023-05-17T12:02:08.255Z,12.50
2023-05-17T12:04:41.262Z,12.50
2023-05-17T12:07:13.732Z,12.30
2023-05-17T12:09:45.248Z,12.30
2023-05-17T12:12:13.688Z,12.10
2023-05-17T12:14:48.592Z,12.10
2023-05-17T12:17:43.348Z,12.10
2023-05-17T12:20:13.305Z,12.10
2023-05-17T12:22:57.603Z,12.20
2023-05-17T12:25:28.241Z,12.40
2023-05-17T12:28:16.460Z,12.30
2023-05-17T12:30:45.133Z,12.30
2023-05-17T12:33:15.080Z,12.20
2023-05-17T12:35:44.274Z,12.30
2023-05-17T12:38:13.508Z,12.60
2023-05-17T12:40:43.458Z,12.20
2023-05-17T12:43:12.482Z,12.60
2023-05-17T12:45:43.244Z,12.50
2023-05-17T12:48:12.151Z,12.40
2023-05-17T12:50:58.375Z,12.30
2023-05-17T12:53:48.556Z,12.70
2023-05-17T12:56:28.160Z,12.70
2023-05-17T12:59:12.825Z,12.40
2023-05-17T13:01:58.092Z,12.70
2023-05-17T13:04:34.508Z,12.40
2023-05-17T13:07:08.424Z,12.70
2023-05-17T13:09:53.425Z,12.70
2023-05-17T13:12:28.621Z,12.60
2023-05-17T13:14:58.562Z,13.00
2023-05-17T13:17:37.576Z,12.80
2023-05-17T13:20:10.712Z,13.00
2023-05-17T13:22:49.568Z,12.90
2023-05-17T13:25:26.975Z,13.00
2023-05-17T13:27:57.108Z,13.10
2023-05-17T13:30:31.960Z,13.00
2023-05-17T13:33:07.118Z,13.20
2023-05-17T13:35:41.097Z,13.00
2023-05-17T13:38:10.367Z,13.10
2023-05-17T13:40:39.178Z,12.80
2023-05-17T13:43:09.954Z,12.60
2023-05-17T13:45:39.461Z,12.70
2023-05-17T13:48:09.578Z,12.80
2023-05-17T13:50:39.009Z,12.60
2023-05-17T13:53:08.227Z,12.80
2023-05-17T13:55:36.437Z,12.90
2023-05-17T13:58:03.857Z,12.90
2023-05-17T14:00:33.132Z,13.60
2023-05-17T14:03:01.894Z,13.40
2023-05-17T14:05:31.771Z,13.50
2023-05-17T14:08:03.332Z,13.20
2023-05-17T14:10:32.087Z,13.30
2023-05-17T14:13:03.689Z,13.30
2023-05-17T14:15:32.945Z,13.30
2023-05-17T14:18:00.741Z,13.20
2023-05-17T14:20:28.342Z,13.30
2023-05-17T14:22:56.420Z,13.50
2023-05-17T14:25:24.775Z,13.20
2023-05-17T14:27:53.706Z,13.30
2023-05-17T14:30:21.867Z,13.30
2023-05-17T14:32:49.947Z,12.60
2023-05-17T14:35:17.883Z,13.00
2023-05-17T14:37:46.530Z,13.20
2023-05-17T14:40:14.846Z,13.10
2023-05-17T14:42:43.458Z,13.40
2023-05-17T14:45:11.847Z,13.20
2023-05-17T14:47:39.740Z,13.20
2023-05-17T14:50:08.058Z,13.50
2023-05-17T14:52:35.985Z,13.50
2023-05-17T14:55:07.259Z,13.30
2023-05-17T14:57:36.485Z,13.40
2023-05-17T15:00:10.924Z,13.60
2023-05-17T15:02:39.573Z,13.40
2023-05-17T15:05:13.594Z,13.30
2023-05-17T15:07:41.439Z,13.10
2023-05-17T15:10:10.978Z,13.10
2023-05-17T15:12:39.856Z,13.20
2023-05-17T15:15:08.675Z,13.60
2023-05-17T15:17:38.686Z,13.40
2023-05-17T15:20:07.651Z,12.90
2023-05-17T15:22:35.408Z,13.30
2023-05-17T15:25:03.413Z,13.10
2023-05-17T15:27:31.329Z,13.30
2023-05-17T15:29:59.140Z,13.00
2023-05-17T15:32:27.636Z,12.70
2023-05-17T15:34:56.257Z,12.80
2023-05-17T15:37:24.322Z,12.80
2023-05-17T15:39:52.508Z,12.80
2023-05-17T15:42:21.763Z,12.70
2023-05-17T15:44:49.930Z,12.70
2023-05-17T15:47:19.355Z,12.70
2023-05-17T15:49:48.262Z,12.60
2023-05-17T15:52:16.349Z,12.60
2023-05-17T15:54:44.024Z,12.60
2023-05-17T15:57:12.270Z,12.50
2023-05-17T15:59:41.642Z,12.40
2023-05-17T16:02:09.495Z,12.60
2023-05-17T16:04:44.796Z,12.70
2023-05-17T16:07:15.717Z,12.60
2023-05-17T16:09:43.699Z,12.60
2023-05-17T16:12:12.039Z,12.50
2023-05-17T16:14:43.006Z,12.50
2023-05-17T16:17:11.675Z,12.10
2023-05-17T16:19:39.906Z,12.10
2023-05-17T16:22:11.832Z,12.40
2023-05-17T16:24:39.674Z,12.30
2023-05-17T16:27:09.362Z,12.40
2023-05-17T16:29:42.952Z,12.30
2023-05-17T16:32:12.131Z,12.20
2023-05-17T16:34:39.590Z,12.10
2023-05-17T16:37:08.507Z,12.00
2023-05-17T16:39:37.597Z,12.20
2023-05-17T16:42:06.709Z,12.00
2023-05-17T16:44:36.012Z,12.10
2023-05-17T16:47:05.234Z,11.90
2023-05-17T16:49:49.928Z,12.10
2023-05-17T16:52:19.048Z,12.10
2023-05-17T16:54:48.448Z,12.00
2023-05-17T16:57:19.261Z,11.90
2023-05-17T16:59:51.468Z,11.80
2023-05-17T17:02:20.825Z,11.90
2023-05-17T17:04:49.519Z,11.70
2023-05-17T17:07:18.041Z,11.60
2023-05-17T17:09:46.257Z,11.50
2023-05-17T17:12:24.008Z,11.60
2023-05-17T17:14:53.301Z,11.50
2023-05-17T17:17:21.583Z,11.70
2023-05-17T17:19:50.056Z,11.10
2023-05-17T17:22:19.086Z,11.10
2023-05-17T17:24:46.928Z,11.50
2023-05-17T17:27:18.002Z,11.50
2023-05-17T17:29:45.859Z,11.40
2023-05-17T17:32:17.792Z,11.40
2023-05-17T17:34:48.760Z,11.50
2023-05-17T17:37:19.085Z,11.10
2023-05-17T17:39:47.514Z,11.40
2023-05-17T17:42:15.803Z,11.10
2023-05-17T17:44:45.167Z,11.50
2023-05-17T17:47:15.320Z,11.20
2023-05-17T17:49:43.795Z,11.40
2023-05-17T17:52:12.025Z,11.50
2023-05-17T17:54:40.574Z,11.30
2023-05-17T17:57:08.850Z,11.40
2023-05-17T17:59:37.246Z,11.30
2023-05-17T18:02:05.360Z,11.20
2023-05-17T18:04:33.775Z,11.10
2023-05-17T18:07:02.704Z,11.00
2023-05-17T18:09:31.632Z,11.00
2023-05-17T18:12:00.248Z,11.00
2023-05-17T18:14:33.279Z,11.20
2023-05-17T18:17:03.721Z,10.90
2023-05-17T18:19:36.784Z,11.30
2023-05-17T18:22:07.032Z,11.10
2023-05-17T18:24:36.917Z,10.80
2023-05-17T18:27:07.550Z,10.80
2023-05-17T18:29:37.610Z,11.00
2023-05-17T18:32:09.857Z,10.90
2023-05-17T18:34:38.252Z,10.90
2023-05-17T18:37:06.127Z,11.00
2023-05-17T18:39:37.253Z,10.90
2023-05-17T18:42:05.755Z,10.90
2023-05-17T18:44:35.503Z,10.90
2023-05-17T18:47:03.674Z,10.80
2023-05-17T18:49:31.989Z,11.00
2023-05-17T18:52:06.128Z,10.80
2023-05-17T18:54:34.646Z,10.80
2023-05-17T18:57:02.319Z,10.90
2023-05-17T18:59:30.560Z,10.90
2023-05-17T19:01:58.843Z,10.80
2023-05-17T19:04:26.529Z,10.80
2023-05-17T19:06:54.661Z,10.80
2023-05-17T19:09:22.706Z,10.70
2023-05-17T19:11:51.016Z,10.70
2023-05-17T19:14:18.970Z,10.80
2023-05-17T19:16:47.182Z,10.80
2023-05-17T19:19:15.887Z,10.50
2023-05-17T19:21:53.688Z,10.90
2023-05-17T19:24:21.489Z,10.50
2023-05-17T19:26:54.443Z,10.80
2023-05-17T19:29:23.279Z,10.90
2023-05-17T19:31:51.937Z,10.80
2023-05-17T19:34:20.829Z,10.80
2023-05-17T19:36:48.564Z,10.90
2023-05-17T19:39:18.717Z,10.90
2023-05-17T19:41:48.280Z,10.90
2023-05-17T19:44:16.951Z,10.80
2023-05-17T19:46:44.694Z,10.80
2023-05-17T19:49:13.361Z,10.80
2023-05-17T19:51:41.547Z,10.90
2023-05-17T19:54:12.218Z,10.90
2023-05-17T19:56:40.264Z,11.00
2023-05-17T19:59:09.268Z,10.80
2023-05-17T20:01:37.901Z,10.80
2023-05-17T20:04:05.924Z,10.80
2023-05-17T20:06:35.052Z,10.90
2023-05-17T20:09:04.478Z,11.00
2023-05-17T20:11:32.680Z,10.90
2023-05-17T20:14:01.346Z,11.00
2023-05-17T20:16:32.303Z,10.90
2023-05-17T20:19:09.133Z,10.90
2023-05-17T20:21:37.268Z,11.00
2023-05-17T20:24:11.328Z,10.90
2023-05-17T20:26:39.845Z,10.90
2023-05-17T20:29:11.066Z,10.80
2023-05-17T20:31:39.425Z,10.80
2023-05-17T20:34:08.424Z,10.80
2023-05-17T20:36:39.990Z,10.60
2023-05-17T20:39:13.092Z,10.80
2023-05-17T20:41:42.783Z,11.20
2023-05-17T20:44:21.538Z,10.90
2023-05-17T20:46:52.514Z,10.90
2023-05-17T20:49:23.893Z,10.80
2023-05-17T20:51:54.415Z,10.90
2023-05-17T20:54:25.482Z,10.90
2023-05-17T20:57:00.553Z,10.90
2023-05-17T20:59:30.973Z,10.80
2023-05-17T21:02:04.284Z,10.90
2023-05-17T21:04:34.935Z,10.60
2023-05-17T21:07:03.334Z,10.90
2023-05-17T21:09:34.143Z,10.80
2023-05-17T21:12:02.975Z,10.90
2023-05-17T21:14:38.487Z,10.90
2023-05-17T21:17:07.049Z,11.00
2023-05-17T21:19:38.291Z,10.90
2023-05-17T21:22:07.080Z,10.50
2023-05-17T21:24:39.754Z,10.70
2023-05-17T21:27:08.840Z,10.80
2023-05-17T21:29:37.051Z,10.90
2023-05-17T21:32:07.234Z,11.00
2023-05-17T21:34:37.015Z,10.80
2023-05-17T21:37:05.552Z,11.00
2023-05-17T21:39:38.294Z,11.00
2023-05-17T21:42:14.286Z,10.90
2023-05-17T21:44:42.271Z,10.90
2023-05-17T21:47:10.787Z,10.60
2023-05-17T21:49:40.258Z,10.90
2023-05-17T21:52:08.080Z,10.90
2023-05-17T21:54:39.732Z,10.90
2023-05-17T21:57:08.962Z,10.90
2023-05-17T21:59:39.821Z,10.60
2023-05-17T22:02:09.013Z,10.80
2023-05-17T22:04:38.845Z,10.90
2023-05-17T22:07:13.678Z,11.10
2023-05-17T22:09:45.006Z,10.90
2023-05-17T22:12:13.344Z,11.10
2023-05-17T22:14:45.824Z,11.00
2023-05-17T22:17:19.152Z,11.10
2023-05-17T22:19:50.611Z,10.70
2023-05-17T22:22:22.156Z,11.00
2023-05-17T22:24:56.495Z,10.70
2023-05-17T22:27:25.326Z,11.00
2023-05-17T22:29:54.019Z,11.10
2023-05-17T22:32:21.697Z,10.80
2023-05-17T22:34:51.319Z,10.70
2023-05-17T22:37:22.904Z,11.00
2023-05-17T22:39:52.088Z,11.00
2023-05-17T22:42:23.423Z,10.80
2023-05-17T22:44:52.541Z,10.90
2023-05-17T22:47:24.526Z,11.10
2023-05-17T22:49:53.375Z,11.10
2023-05-17T22:52:22.589Z,10.90
2023-05-17T22:54:51.458Z,10.70
2023-05-17T22:57:20.396Z,10.70
2023-05-17T22:59:49.490Z,10.70
2023-05-17T23:02:18.186Z,10.80
2023-05-17T23:04:47.372Z,10.60
2023-05-17T23:07:15.471Z,10.60
2023-05-17T23:09:45.288Z,10.40
2023-05-17T23:12:17.677Z,10.50
2023-05-17T23:14:46.334Z,10.50
2023-05-17T23:17:15.335Z,10.00
2023-05-17T23:19:44.627Z,10.40
2023-05-17T23:22:13.811Z,10.30
2023-05-17T23:24:43.506Z,10.40
2023-05-17T23:27:13.756Z,10.30
2023-05-17T23:29:42.086Z,10.30
2023-05-17T23:32:11.160Z,10.20
2023-05-17T23:34:39.290Z,10.30
2023-05-17T23:37:08.678Z,10.20
2023-05-17T23:39:37.364Z,10.20
2023-05-17T23:42:06.646Z,9.90
2023-05-17T23:44:35.538Z,10.20
2023-05-17T23:47:07.737Z,9.90
2023-05-17T23:49:37.558Z,10.00
2023-05-17T23:52:11.211Z,9.90
2023-05-17T23:54:42.650Z,9.90
2023-05-17T23:57:12.045Z,9.80
2023-05-17T23:59:40.263Z,9.90
